createdAt,value
2022-09-15T00:00:55.543Z,97907.13
2022-09-15T00:01:59.351Z,97915.66
2022-09-15T00:03:03.095Z,97913.63
2022-09-15T00:04:08.211Z,97917.75
2022-09-15T00:05:12.722Z,97888.72
2022-09-15T00:06:17.441Z,97890.38
2022-09-15T00:07:21.111Z,97876.22
2022-09-15T00:08:25.575Z,97898.50
2022-09-15T00:09:29.238Z,97898.91
2022-09-15T00:10:33.307Z,97901.19
2022-09-15T00:11:39.179Z,97889.97
2022-09-15T00:12:42.782Z,97870.38
2022-09-15T00:13:47.268Z,97886.28
2022-09-15T00:14:50.930Z,97893.53
2022-09-15T00:15:54.931Z,97887.94
2022-09-15T00:16:58.592Z,97882.94
2022-09-15T00:18:02.160Z,97884.44
2022-09-15T00:19:06.924Z,97873.03
2022-09-15T00:20:11.288Z,97867.84
2022-09-15T00:21:30.701Z,97872.03
2022-09-15T00:22:34.550Z,97846.25
2022-09-15T00:23:39.268Z,97858.56
2022-09-15T00:24:43.029Z,97850.63
2022-09-15T00:25:53.159Z,97853.56
2022-09-15T00:26:57.411Z,97846.66
2022-09-15T00:28:01.115Z,97833.34
2022-09-15T00:29:05.853Z,97860.25
2022-09-15T00:30:10.115Z,97851.28
2022-09-15T00:31:18.389Z,97848.66
2022-09-15T00:32:22.365Z,97833.03
2022-09-15T00:33:26.361Z,97833.03
2022-09-15T00:34:30.054Z,97824.53
2022-09-15T00:35:41.294Z,97838.47
2022-09-15T00:36:45.353Z,97844.28
2022-09-15T00:37:49.123Z,97813.59
2022-09-15T00:38:53.094Z,97833.50
2022-09-15T00:39:56.799Z,97825.78
2022-09-15T00:41:01.863Z,97843.91
2022-09-15T00:42:06.219Z,97847.81
2022-09-15T00:43:12.266Z,97847.63
2022-09-15T00:44:36.684Z,97847.44
2022-09-15T00:45:40.714Z,97844.47
2022-09-15T00:47:04.307Z,97841.59
2022-09-15T00:48:21.209Z,97839.94
2022-09-15T00:49:32.587Z,97834.81
2022-09-15T00:50:39.798Z,97824.19
2022-09-15T00:52:47.391Z,97824.91
2022-09-15T00:53:55.088Z,97824.13
2022-09-15T00:55:25.813Z,97827.16
2022-09-15T00:56:32.010Z,97823.63
2022-09-15T00:58:04.175Z,97808.00
2022-09-15T01:00:37.055Z,97806.63
2022-09-15T01:01:43.223Z,97807.59
2022-09-15T01:02:49.787Z,97804.28
2022-09-15T01:03:54.364Z,97799.69
2022-09-15T01:05:00.219Z,97802.00
2022-09-15T01:06:34.301Z,97808.22
2022-09-15T01:07:59.316Z,97805.53
2022-09-15T01:09:24.057Z,97815.03
2022-09-15T01:10:32.857Z,97816.84
2022-09-15T01:11:37.133Z,97811.03
2022-09-15T01:12:42.091Z,97833.03
2022-09-15T01:13:46.294Z,97812.75
2022-09-15T01:14:50.144Z,97801.81
2022-09-15T01:18:15.411Z,97793.94
2022-09-15T01:19:50.014Z,97781.75
2022-09-15T01:21:18.145Z,97791.06
2022-09-15T01:22:54.056Z,97782.53
2022-09-15T01:24:35.146Z,97787.28
2022-09-15T01:26:29.400Z,97790.16
2022-09-15T01:28:35.365Z,97781.84
2022-09-15T01:30:22.231Z,97781.00
2022-09-15T01:31:32.196Z,97756.03
2022-09-15T01:33:14.100Z,97770.75
2022-09-15T01:34:21.004Z,97778.69
2022-09-15T01:35:55.072Z,97778.69
2022-09-15T01:37:10.271Z,97778.69
2022-09-15T01:38:56.802Z,97782.00
2022-09-15T01:40:04.051Z,97784.22
2022-09-15T01:41:18.546Z,97793.03
2022-09-15T01:42:26.580Z,97794.69
2022-09-15T01:43:35.558Z,97794.69
2022-09-15T01:44:55.961Z,97796.38
2022-09-15T01:46:03.199Z,97794.50
2022-09-15T01:47:21.057Z,97778.94
2022-09-15T01:48:36.669Z,97791.63
2022-09-15T01:49:53.036Z,97784.97
2022-09-15T01:51:02.647Z,97787.91
2022-09-15T01:52:06.935Z,97787.06
2022-09-15T01:53:19.525Z,97779.84
2022-09-15T01:54:30.655Z,97779.84
2022-09-15T01:56:05.310Z,97783.19
2022-09-15T01:57:08.921Z,97768.19
2022-09-15T01:58:12.801Z,97784.59
2022-09-15T01:59:16.930Z,97780.88
2022-09-15T02:00:21.428Z,97774.88
2022-09-15T02:01:57.607Z,97767.81
2022-09-15T02:03:17.497Z,97776.97
2022-09-15T02:04:28.102Z,97776.97
2022-09-15T02:05:48.750Z,97771.53
2022-09-15T02:07:27.447Z,97785.88
2022-09-15T02:08:47.776Z,97779.22
2022-09-15T02:10:11.876Z,97786.91
2022-09-15T02:11:21.499Z,97797.25
2022-09-15T02:12:43.434Z,97787.53
2022-09-15T02:14:21.963Z,97785.69
2022-09-15T02:15:33.722Z,97794.16
2022-09-15T02:16:41.306Z,97783.63
2022-09-15T02:17:54.396Z,97783.81
2022-09-15T02:19:10.878Z,97784.84
2022-09-15T02:20:33.434Z,97779.06
2022-09-15T02:22:08.255Z,97775.75
2022-09-15T02:23:28.863Z,97776.38
2022-09-15T02:24:42.381Z,97749.22
2022-09-15T02:25:52.954Z,97778.63
2022-09-15T02:26:59.686Z,97772.88
2022-09-15T02:28:12.774Z,97768.72
2022-09-15T02:29:21.565Z,97771.00
2022-09-15T02:30:26.294Z,97755.41
2022-09-15T02:31:34.774Z,97748.38
2022-09-15T02:32:47.560Z,97754.81
2022-09-15T02:34:11.364Z,97746.13
2022-09-15T02:35:17.419Z,97763.16
2022-09-15T02:36:22.493Z,97756.53
2022-09-15T02:37:27.882Z,97727.06
2022-09-15T02:38:39.491Z,97745.94
2022-09-15T02:39:51.958Z,97739.94
2022-09-15T02:40:57.113Z,97746.97
2022-09-15T02:42:02.601Z,97748.81
2022-09-15T02:43:16.082Z,97729.56
2022-09-15T02:44:19.893Z,97747.22
2022-09-15T02:45:25.962Z,97750.94
2022-09-15T02:46:30.433Z,97715.59
2022-09-15T02:47:34.049Z,97757.50
2022-09-15T02:48:37.618Z,97749.28
2022-09-15T02:49:41.928Z,97748.38
2022-09-15T02:50:45.718Z,97735.94
2022-09-15T02:51:49.726Z,97744.22
2022-09-15T02:52:55.651Z,97735.31
2022-09-15T02:53:59.394Z,97755.47
2022-09-15T02:55:03.248Z,97726.13
2022-09-15T02:56:07.680Z,97739.66
2022-09-15T02:57:11.840Z,97724.06
2022-09-15T02:58:15.463Z,97739.56
2022-09-15T02:59:19.109Z,97753.56
2022-09-15T03:00:24.038Z,97749.22
2022-09-15T03:01:32.492Z,97752.72
2022-09-15T03:02:36.213Z,97741.44
2022-09-15T03:03:42.843Z,97740.50
2022-09-15T03:04:50.406Z,97737.72
2022-09-15T03:05:54.132Z,97715.09
2022-09-15T03:06:57.916Z,97738.19
2022-09-15T03:08:02.480Z,97703.88
2022-09-15T03:09:08.561Z,97725.06
2022-09-15T03:10:13.943Z,97745.03
2022-09-15T03:11:21.038Z,97727.56
2022-09-15T03:12:26.638Z,97709.72
2022-09-15T03:13:30.344Z,97730.31
2022-09-15T03:14:34.250Z,97736.72
2022-09-15T03:15:38.011Z,97722.56
2022-09-15T03:16:41.795Z,97740.50
2022-09-15T03:17:47.770Z,97744.28
2022-09-15T03:18:52.432Z,97732.81
2022-09-15T03:19:56.065Z,97744.91
2022-09-15T03:20:59.760Z,97743.03
2022-09-15T03:22:03.670Z,97753.63
2022-09-15T03:23:07.595Z,97738.28
2022-09-15T03:24:11.248Z,97744.28
2022-09-15T03:25:16.004Z,97735.38
2022-09-15T03:26:19.762Z,97734.97
2022-09-15T03:27:23.610Z,97735.19
2022-09-15T03:28:29.084Z,97749.31
2022-09-15T03:29:32.722Z,97728.34
2022-09-15T03:30:36.382Z,97744.53
2022-09-15T03:31:40.137Z,97745.41
2022-09-15T03:32:43.854Z,97734.81
2022-09-15T03:33:48.621Z,97739.16
2022-09-15T03:34:56.388Z,97734.41
2022-09-15T03:36:03.073Z,97735.03
2022-09-15T03:37:07.042Z,97741.06
2022-09-15T03:38:10.972Z,97725.25
2022-09-15T03:39:15.361Z,97722.41
2022-09-15T03:40:19.019Z,97726.75
2022-09-15T03:41:22.640Z,97738.56
2022-09-15T03:42:26.868Z,97710.75
2022-09-15T03:43:32.446Z,97706.38
2022-09-15T03:44:36.644Z,97702.03
2022-09-15T03:45:40.253Z,97708.25
2022-09-15T03:46:43.864Z,97716.38
2022-09-15T03:47:47.465Z,97731.09
2022-09-15T03:48:51.874Z,97725.72
2022-09-15T03:49:55.989Z,97697.59
2022-09-15T03:51:00.078Z,97718.69
2022-09-15T03:52:03.842Z,97707.47
2022-09-15T03:53:07.464Z,97705.81
2022-09-15T03:54:11.820Z,97712.66
2022-09-15T03:55:15.946Z,97719.72
2022-09-15T03:56:27.246Z,97730.88
2022-09-15T03:57:30.842Z,97709.91
2022-09-15T03:58:34.795Z,97706.22
2022-09-15T03:59:38.625Z,97708.09
2022-09-15T04:00:42.941Z,97726.53
2022-09-15T04:01:48.436Z,97713.31
2022-09-15T04:02:52.134Z,97690.63
2022-09-15T04:03:56.884Z,97699.34
2022-09-15T04:05:00.687Z,97693.91
2022-09-15T04:06:04.799Z,97708.91
2022-09-15T04:07:09.196Z,97730.47
2022-09-15T04:08:13.646Z,97715.94
2022-09-15T04:09:17.293Z,97719.88
2022-09-15T04:10:24.121Z,97694.50
2022-09-15T04:11:28.249Z,97725.47
2022-09-15T04:12:32.583Z,97716.97
2022-09-15T04:13:39.151Z,97717.13
2022-09-15T04:14:43.140Z,97707.78
2022-09-15T04:15:46.791Z,97712.13
2022-09-15T04:16:51.016Z,97716.97
2022-09-15T04:17:54.614Z,97710.09
2022-09-15T04:18:58.727Z,97715.94
2022-09-15T04:20:03.005Z,97713.69
2022-09-15T04:21:13.212Z,97715.34
2022-09-15T04:22:17.976Z,97712.22
2022-09-15T04:23:21.853Z,97711.19
2022-09-15T04:24:25.509Z,97702.41
2022-09-15T04:25:29.587Z,97718.84
2022-09-15T04:26:36.804Z,97683.28
2022-09-15T04:27:40.821Z,97708.72
2022-09-15T04:28:44.435Z,97700.38
2022-09-15T04:29:52.436Z,97694.56
2022-09-15T04:31:12.099Z,97711.00
2022-09-15T04:32:15.687Z,97716.16
2022-09-15T04:33:19.497Z,97707.06
2022-09-15T04:34:24.283Z,97693.16
2022-09-15T04:35:28.375Z,97710.63
2022-09-15T04:36:32.136Z,97691.28
2022-09-15T04:37:35.845Z,97704.22
2022-09-15T04:38:39.890Z,97704.22
2022-09-15T04:39:43.543Z,97698.00
2022-09-15T04:40:47.149Z,97687.94
2022-09-15T04:41:51.017Z,97697.56
2022-09-15T04:42:54.832Z,97688.66
2022-09-15T04:43:58.936Z,97703.19
2022-09-15T04:45:03.148Z,97698.84
2022-09-15T04:46:07.794Z,97690.53
2022-09-15T04:47:11.838Z,97675.84
2022-09-15T04:48:15.412Z,97672.94
2022-09-15T04:49:19.250Z,97698.06
2022-09-15T04:50:23.039Z,97691.03
2022-09-15T04:51:27.382Z,97691.88
2022-09-15T04:52:31.122Z,97701.19
2022-09-15T04:53:35.857Z,97684.38
2022-09-15T04:54:39.615Z,97682.31
2022-09-15T04:55:43.661Z,97698.13
2022-09-15T04:56:49.030Z,97676.47
2022-09-15T04:57:52.677Z,97697.91
2022-09-15T04:59:03.495Z,97710.94
2022-09-15T05:00:09.303Z,97688.50
2022-09-15T05:01:17.577Z,97691.91
2022-09-15T05:02:22.156Z,97710.56
2022-09-15T05:03:25.871Z,97692.28
2022-09-15T05:04:29.759Z,97710.38
2022-09-15T05:05:35.043Z,97706.66
2022-09-15T05:06:41.416Z,97693.16
2022-09-15T05:07:45.480Z,97696.53
2022-09-15T05:08:55.660Z,97696.53
2022-09-15T05:09:59.319Z,97701.53
2022-09-15T05:11:13.253Z,97702.16
2022-09-15T05:12:18.086Z,97700.28
2022-09-15T05:13:22.156Z,97707.94
2022-09-15T05:14:25.705Z,97690.31
2022-09-15T05:15:29.404Z,97702.00
2022-09-15T05:16:33.516Z,97676.25
2022-09-15T05:17:37.173Z,97678.16
2022-09-15T05:18:43.173Z,97703.28
2022-09-15T05:19:47.077Z,97706.59
2022-09-15T05:20:58.854Z,97698.72
2022-09-15T05:22:02.746Z,97682.50
2022-09-15T05:23:06.410Z,97702.44
2022-09-15T05:24:10.032Z,97680.44
2022-09-15T05:25:13.620Z,97696.25
2022-09-15T05:26:29.464Z,97691.28
2022-09-15T05:27:34.172Z,97696.91
2022-09-15T05:28:39.202Z,97699.59
2022-09-15T05:29:43.178Z,97694.38
2022-09-15T05:30:46.715Z,97689.88
2022-09-15T05:31:50.708Z,97689.03
2022-09-15T05:32:54.726Z,97686.78
2022-09-15T05:34:01.035Z,97702.16
2022-09-15T05:35:07.018Z,97688.47
2022-09-15T05:36:10.928Z,97688.50
2022-09-15T05:37:14.528Z,97694.75
2022-09-15T05:38:18.777Z,97681.00
2022-09-15T05:39:54.985Z,97693.47
2022-09-15T05:41:07.474Z,97700.38
2022-09-15T05:42:11.493Z,97708.44
2022-09-15T05:43:16.477Z,97697.66
2022-09-15T05:44:21.636Z,97686.88
2022-09-15T05:45:25.479Z,97686.22
2022-09-15T05:46:29.552Z,97675.03
2022-09-15T05:47:33.183Z,97680.22
2022-09-15T05:48:37.364Z,97707.22
2022-09-15T05:49:41.162Z,97687.72
2022-09-15T05:50:54.022Z,97701.00
2022-09-15T05:51:57.586Z,97681.06
2022-09-15T05:53:01.209Z,97676.50
2022-09-15T05:54:05.144Z,97688.94
2022-09-15T05:55:10.409Z,97696.47
2022-09-15T05:56:17.171Z,97683.53
2022-09-15T05:57:20.687Z,97681.88
2022-09-15T05:58:25.508Z,97707.03
2022-09-15T05:59:29.404Z,97680.00
2022-09-15T06:00:36.289Z,97687.50
2022-09-15T06:01:40.138Z,97698.53
2022-09-15T06:02:46.507Z,97695.63
2022-09-15T06:03:51.018Z,97676.69
2022-09-15T06:04:54.547Z,97701.63
2022-09-15T06:06:06.796Z,97703.75
2022-09-15T06:07:10.323Z,97703.13
2022-09-15T06:08:14.428Z,97697.28
2022-09-15T06:09:18.740Z,97704.78
2022-09-15T06:10:25.121Z,97698.56
2022-09-15T06:11:33.958Z,97701.25
2022-09-15T06:12:37.808Z,97707.25
2022-09-15T06:13:42.347Z,97696.69
2022-09-15T06:14:50.454Z,97689.44
2022-09-15T06:15:54.034Z,97698.16
2022-09-15T06:16:57.809Z,97676.59
2022-09-15T06:18:01.635Z,97698.38
2022-09-15T06:19:05.474Z,97677.88
2022-09-15T06:20:10.191Z,97699.84
2022-09-15T06:21:19.726Z,97700.66
2022-09-15T06:22:23.576Z,97680.72
2022-09-15T06:23:27.357Z,97687.19
2022-09-15T06:24:31.146Z,97698.38
2022-09-15T06:25:35.068Z,97672.44
2022-09-15T06:26:38.961Z,97703.16
2022-09-15T06:27:43.126Z,97690.69
2022-09-15T06:29:02.374Z,97703.97
2022-09-15T06:30:08.445Z,97707.69
2022-09-15T06:31:14.669Z,97693.81
2022-09-15T06:32:18.514Z,97707.28
2022-09-15T06:33:22.287Z,97697.13
2022-09-15T06:34:29.181Z,97707.69
2022-09-15T06:35:32.882Z,97707.53
2022-09-15T06:36:38.186Z,97700.66
2022-09-15T06:37:41.861Z,97695.91
2022-09-15T06:38:46.397Z,97679.69
2022-09-15T06:39:50.120Z,97711.47
2022-09-15T06:40:59.018Z,97716.00
2022-09-15T06:42:04.221Z,97713.53
2022-09-15T06:43:09.611Z,97717.66
2022-09-15T06:44:13.568Z,97723.06
2022-09-15T06:45:17.544Z,97711.03
2022-09-15T06:46:28.394Z,97713.94
2022-09-15T06:47:34.194Z,97717.66
2022-09-15T06:48:40.188Z,97727.59
2022-09-15T06:49:44.006Z,97705.44
2022-09-15T06:50:55.094Z,97721.81
2022-09-15T06:51:58.872Z,97714.53
2022-09-15T06:53:02.470Z,97735.47
2022-09-15T06:54:07.279Z,97704.56
2022-09-15T06:55:11.270Z,97733.81
2022-09-15T06:56:19.207Z,97735.09
2022-09-15T06:57:22.857Z,97737.56
2022-09-15T06:58:26.418Z,97733.03
2022-09-15T06:59:30.044Z,97711.00
2022-09-15T07:00:34.356Z,97723.47
2022-09-15T07:01:38.610Z,97742.38
2022-09-15T07:02:42.391Z,97715.78
2022-09-15T07:03:46.511Z,97733.66
2022-09-15T07:04:50.388Z,97751.69
2022-09-15T07:05:54.254Z,97733.84
2022-09-15T07:06:58.024Z,97746.75
2022-09-15T07:08:02.058Z,97745.91
2022-09-15T07:09:07.278Z,97741.97
2022-09-15T07:10:10.870Z,97747.56
2022-09-15T07:11:15.785Z,97738.19
2022-09-15T07:12:20.535Z,97769.97
2022-09-15T07:13:25.480Z,97753.78
2022-09-15T07:14:29.369Z,97781.38
2022-09-15T07:15:32.961Z,97750.03
2022-09-15T07:16:36.784Z,97761.44
2022-09-15T07:17:40.635Z,97779.50
2022-09-15T07:18:44.949Z,97782.00
2022-09-15T07:19:48.794Z,97771.84
2022-09-15T07:20:53.060Z,97772.47
2022-09-15T07:21:56.957Z,97786.53
2022-09-15T07:23:00.605Z,97780.53
2022-09-15T07:24:07.212Z,97783.84
2022-09-15T07:25:11.197Z,97774.72
2022-09-15T07:26:21.157Z,97784.91
2022-09-15T07:27:27.277Z,97795.09
2022-09-15T07:28:31.278Z,97774.53
2022-09-15T07:29:37.795Z,97792.19
2022-09-15T07:30:44.054Z,97794.88
2022-09-15T07:31:48.049Z,97805.25
2022-09-15T07:32:52.485Z,97771.84
2022-09-15T07:33:56.358Z,97780.94
2022-09-15T07:35:00.109Z,97789.69
2022-09-15T07:36:06.734Z,97818.50
2022-09-15T07:37:10.981Z,97811.66
2022-09-15T07:38:14.853Z,97808.13
2022-09-15T07:39:18.556Z,97832.63
2022-09-15T07:40:22.317Z,97835.09
2022-09-15T07:41:32.571Z,97851.66
2022-09-15T07:42:36.341Z,97842.75
2022-09-15T07:43:40.311Z,97816.34
2022-09-15T07:44:43.861Z,97840.00
2022-09-15T07:45:47.921Z,97847.00
2022-09-15T07:46:51.809Z,97841.75
2022-09-15T07:47:55.452Z,97866.59
2022-09-15T07:49:01.223Z,97857.03
2022-09-15T07:50:08.574Z,97857.97
2022-09-15T07:51:12.839Z,97872.50
2022-09-15T07:52:17.067Z,97857.34
2022-09-15T07:53:21.584Z,97858.47
2022-09-15T07:54:25.221Z,97876.69
2022-09-15T07:55:30.641Z,97867.19
2022-09-15T07:56:34.463Z,97874.44
2022-09-15T07:57:38.009Z,97893.88
2022-09-15T07:58:41.689Z,97903.13
2022-09-15T07:59:45.397Z,97901.34
2022-09-15T08:00:49.733Z,97900.25
2022-09-15T08:01:54.148Z,97912.59
2022-09-15T08:02:57.919Z,97915.47
2022-09-15T08:04:02.040Z,97914.75
2022-09-15T08:05:06.305Z,97924.94
2022-09-15T08:06:11.199Z,97925.13
2022-09-15T08:07:14.926Z,97911.72
2022-09-15T08:08:18.666Z,97928.13
2022-09-15T08:09:22.435Z,97926.25
2022-09-15T08:10:26.609Z,97914.34
2022-09-15T08:11:30.264Z,97927.41
2022-09-15T08:12:34.130Z,97933.81
2022-09-15T08:13:38.310Z,97929.50
2022-09-15T08:14:42.048Z,97934.06
2022-09-15T08:15:46.257Z,97936.75
2022-09-15T08:16:49.856Z,97947.50
2022-09-15T08:17:54.104Z,97933.72
2022-09-15T08:18:57.897Z,97944.38
2022-09-15T08:20:02.403Z,97943.88
2022-09-15T08:21:09.684Z,97946.47
2022-09-15T08:22:14.155Z,97952.03
2022-09-15T08:23:17.786Z,97956.03
2022-09-15T08:24:22.868Z,97923.34
2022-09-15T08:25:27.086Z,97945.84
2022-09-15T08:26:31.329Z,97952.31
2022-09-15T08:27:35.309Z,97929.28
2022-09-15T08:28:39.161Z,97928.06
2022-09-15T08:29:43.486Z,97964.72
2022-09-15T08:30:47.117Z,97969.06
2022-09-15T08:31:51.022Z,97950.09
2022-09-15T08:32:54.982Z,97962.59
2022-09-15T08:33:58.762Z,97971.31
2022-09-15T08:35:02.331Z,97981.50
2022-09-15T08:36:13.568Z,97985.69
2022-09-15T08:37:17.803Z,97977.53
2022-09-15T08:38:21.496Z,97975.09
2022-09-15T08:39:24.999Z,97973.34
2022-09-15T08:40:37.281Z,97989.84
2022-09-15T08:41:46.096Z,97999.00
2022-09-15T08:42:57.385Z,97968.44
2022-09-15T08:44:40.916Z,97998.06
2022-09-15T08:45:59.235Z,97986.47
2022-09-15T08:47:16.141Z,97996.19
2022-09-15T08:48:27.924Z,98000.34
2022-09-15T08:49:54.665Z,97993.94
2022-09-15T08:51:08.190Z,97992.28
2022-09-15T08:52:23.410Z,98001.06
2022-09-15T08:53:38.146Z,97999.78
2022-09-15T08:54:42.027Z,97982.50
2022-09-15T08:56:01.602Z,97997.00
2022-09-15T08:57:09.566Z,97998.75
2022-09-15T08:58:37.877Z,98003.44
2022-09-15T08:59:41.606Z,97990.34
2022-09-15T09:00:51.893Z,98000.09
2022-09-15T09:02:58.353Z,97994.88
2022-09-15T09:04:20.436Z,98001.81
2022-09-15T09:06:01.779Z,98013.47
2022-09-15T09:07:41.954Z,98019.31
2022-09-15T09:09:13.748Z,98019.63
2022-09-15T09:10:48.927Z,98029.25
2022-09-15T09:12:33.507Z,98028.25
2022-09-15T09:13:46.749Z,98033.22
2022-09-15T09:15:13.643Z,98000.19
2022-09-15T09:16:48.131Z,98034.69
2022-09-15T09:18:25.765Z,98022.59
2022-09-15T09:19:45.637Z,98033.59
2022-09-15T09:21:13.235Z,98037.94
2022-09-15T09:22:23.262Z,98032.69
2022-09-15T09:23:34.092Z,98037.88
2022-09-15T09:24:51.771Z,98047.81
2022-09-15T09:25:57.916Z,98051.94
2022-09-15T09:27:01.646Z,98051.50
2022-09-15T09:28:28.245Z,98055.19
2022-09-15T09:29:42.637Z,98057.25
2022-09-15T09:30:46.667Z,98045.41
2022-09-15T09:31:54.152Z,98058.72
2022-09-15T09:33:30.528Z,98055.59
2022-09-15T09:35:01.738Z,98050.81
2022-09-15T09:36:10.045Z,98045.63
2022-09-15T09:37:16.624Z,98059.78
2022-09-15T09:39:00.195Z,98052.13
2022-09-15T09:40:04.462Z,98057.16
2022-09-15T09:41:35.858Z,98057.38
2022-09-15T09:42:40.494Z,98069.88
2022-09-15T09:43:47.613Z,98042.44
2022-09-15T09:44:51.479Z,98057.50
2022-09-15T09:45:55.443Z,98052.75
2022-09-15T09:47:00.920Z,98056.69
2022-09-15T09:48:19.048Z,98053.81
2022-09-15T09:49:34.968Z,98062.56
2022-09-15T09:50:44.270Z,98059.66
2022-09-15T09:51:53.290Z,98050.31
2022-09-15T09:52:57.134Z,98056.78
2022-09-15T09:54:16.430Z,98050.72
2022-09-15T09:55:19.940Z,98045.75
2022-09-15T09:56:27.012Z,98037.00
2022-09-15T09:57:40.526Z,98063.38
2022-09-15T09:58:46.187Z,98039.06
2022-09-15T09:59:51.940Z,98059.84
2022-09-15T10:01:11.263Z,98059.19
2022-09-15T10:02:26.868Z,98060.66
2022-09-15T10:03:32.939Z,98054.19
2022-09-15T10:04:37.753Z,98058.97
2022-09-15T10:05:42.319Z,98061.22
2022-09-15T10:06:46.819Z,98061.63
2022-09-15T10:07:50.679Z,98061.41
2022-09-15T10:09:10.005Z,98071.78
2022-09-15T10:10:32.373Z,98072.34
2022-09-15T10:11:51.604Z,98076.50
2022-09-15T10:13:01.806Z,98068.16
2022-09-15T10:14:06.341Z,98053.19
2022-09-15T10:15:32.193Z,98070.25
2022-09-15T10:16:35.901Z,98075.81
2022-09-15T10:17:47.157Z,98063.56
2022-09-15T10:18:54.219Z,98077.06
2022-09-15T10:19:59.610Z,98069.56
2022-09-15T10:21:08.774Z,98069.34
2022-09-15T10:22:49.650Z,98072.69
2022-09-15T10:23:53.550Z,98074.53
2022-09-15T10:25:01.149Z,98081.34
2022-09-15T10:26:34.731Z,98069.53
2022-09-15T10:27:38.498Z,98075.59
2022-09-15T10:28:43.541Z,98063.31
2022-09-15T10:29:47.971Z,98061.84
2022-09-15T10:31:02.390Z,98070.97
2022-09-15T10:32:31.402Z,98062.69
2022-09-15T10:33:48.055Z,98057.75
2022-09-15T10:35:12.550Z,98061.06
2022-09-15T10:36:37.816Z,98061.88
2022-09-15T10:38:39.592Z,98059.00
2022-09-15T10:40:00.357Z,98057.16
2022-09-15T10:43:55.044Z,98075.25
2022-09-15T10:45:19.895Z,98070.13
2022-09-15T10:46:44.394Z,98073.66
2022-09-15T10:48:22.514Z,98064.53
2022-09-15T10:49:37.980Z,98065.34
2022-09-15T10:50:56.711Z,98065.13
2022-09-15T10:52:31.239Z,98062.06
2022-09-15T10:54:34.825Z,98061.19
2022-09-15T10:55:58.706Z,98062.06
2022-09-15T10:57:37.954Z,98066.00
2022-09-15T10:59:08.896Z,98060.63
2022-09-15T11:00:23.270Z,98060.84
2022-09-15T11:01:30.717Z,98063.34
2022-09-15T11:02:57.411Z,98059.63
2022-09-15T11:04:25.166Z,98051.94
2022-09-15T11:06:10.893Z,98049.47
2022-09-15T11:07:54.678Z,98048.44
2022-09-15T11:09:27.726Z,98046.16
2022-09-15T11:11:13.521Z,98048.88
2022-09-15T11:12:40.181Z,98033.72
2022-09-15T11:14:18.557Z,98039.53
2022-09-15T11:15:56.834Z,98037.66
2022-09-15T11:17:27.118Z,98036.84
2022-09-15T11:19:00.073Z,98031.22
2022-09-15T11:20:19.130Z,98034.75
2022-09-15T11:21:46.679Z,98031.00
2022-09-15T11:23:15.415Z,98051.38
2022-09-15T11:24:50.105Z,98040.16
2022-09-15T11:26:04.960Z,98038.72
2022-09-15T11:27:27.714Z,98041.81
2022-09-15T11:28:40.842Z,98039.06
2022-09-15T11:30:04.991Z,98029.53
2022-09-15T11:31:28.119Z,98033.06
2022-09-15T11:33:00.939Z,98030.97
2022-09-15T11:34:58.991Z,98024.31
2022-09-15T11:36:23.297Z,98035.56
2022-09-15T11:37:57.318Z,98025.16
2022-09-15T11:39:28.379Z,98026.19
2022-09-15T11:41:19.643Z,98029.50
2022-09-15T11:42:38.044Z,98013.50
2022-09-15T11:44:18.394Z,98032.22
2022-09-15T11:45:38.568Z,98015.78
2022-09-15T11:47:03.662Z,98022.03
2022-09-15T11:48:24.503Z,98016.44
2022-09-15T11:49:44.277Z,98002.50
2022-09-15T11:50:54.960Z,98009.34
2022-09-15T11:52:29.016Z,98008.75
2022-09-15T11:53:51.191Z,97999.19
2022-09-15T11:55:15.465Z,98006.47
2022-09-15T11:56:25.851Z,98010.66
2022-09-15T11:57:42.270Z,98001.28
2022-09-15T11:59:39.282Z,98002.75
2022-09-15T12:01:02.243Z,98006.06
2022-09-15T12:02:28.852Z,97991.09
2022-09-15T12:03:48.604Z,98000.06
2022-09-15T12:05:29.913Z,98003.97
2022-09-15T12:07:02.666Z,97981.31
2022-09-15T12:08:29.836Z,98000.47
2022-09-15T12:09:33.930Z,97971.13
2022-09-15T12:10:44.289Z,98001.50
2022-09-15T12:12:02.027Z,97981.50
2022-09-15T12:13:08.094Z,97985.50
2022-09-15T12:14:29.762Z,98007.50
2022-09-15T12:15:33.998Z,98000.84
2022-09-15T12:16:38.194Z,97997.13
2022-09-15T12:17:52.305Z,98005.00
2022-09-15T12:19:40.500Z,98002.50
2022-09-15T12:21:09.741Z,97979.44
2022-09-15T12:22:43.245Z,97996.47
2022-09-15T12:24:00.450Z,97980.91
2022-09-15T12:25:26.969Z,97968.03
2022-09-15T12:26:34.113Z,97976.75
2022-09-15T12:27:38.150Z,97957.41
2022-09-15T12:28:57.654Z,97983.84
2022-09-15T12:30:01.703Z,97991.94
2022-09-15T12:31:23.756Z,97983.19
2022-09-15T12:32:33.408Z,97965.75
2022-09-15T12:33:44.618Z,97990.06
2022-09-15T12:35:20.255Z,97985.03
2022-09-15T12:36:38.693Z,97972.38
2022-09-15T12:37:59.251Z,97978.63
2022-09-15T12:39:18.972Z,97981.94
2022-09-15T12:40:40.139Z,97975.09
2022-09-15T12:42:01.788Z,97958.28
2022-09-15T12:43:11.730Z,97986.31
2022-09-15T12:44:32.922Z,97980.28
2022-09-15T12:45:38.689Z,97972.59
2022-09-15T12:46:56.488Z,97976.31
2022-09-15T12:48:14.773Z,97954.53
2022-09-15T12:49:28.711Z,97965.53
2022-09-15T12:50:39.336Z,97986.28
2022-09-15T12:51:50.987Z,97967.19
2022-09-15T12:53:01.996Z,97968.63
2022-09-15T12:54:08.982Z,97984.00
2022-09-15T12:55:29.033Z,97961.16
2022-09-15T12:56:35.154Z,97986.91
2022-09-15T12:57:39.066Z,97970.91
2022-09-15T12:58:51.618Z,97990.03
2022-09-15T13:00:20.581Z,97980.06
2022-09-15T13:01:30.141Z,97980.06
2022-09-15T13:02:49.767Z,97982.56
2022-09-15T13:03:55.375Z,97982.56
2022-09-15T13:04:59.342Z,97954.28
2022-09-15T13:06:22.076Z,97970.09
2022-09-15T13:07:35.931Z,97978.19
2022-09-15T13:08:46.122Z,97979.84
2022-09-15T13:10:09.173Z,97976.31
2022-09-15T13:11:27.150Z,97971.13
2022-09-15T13:12:39.908Z,97966.56
2022-09-15T13:13:55.083Z,97976.13
2022-09-15T13:15:05.475Z,97964.25
2022-09-15T13:16:17.234Z,97954.72
2022-09-15T13:17:26.213Z,97965.31
2022-09-15T13:18:32.950Z,97966.75
2022-09-15T13:19:36.605Z,97980.06
2022-09-15T13:20:51.192Z,97980.91
2022-09-15T13:22:30.533Z,97971.56
2022-09-15T13:23:41.410Z,97959.31
2022-09-15T13:25:00.881Z,97958.03
2022-09-15T13:26:12.469Z,97962.41
2022-09-15T13:27:36.241Z,97955.78
2022-09-15T13:28:40.846Z,97957.00
2022-09-15T13:30:24.959Z,97950.38
2022-09-15T13:31:53.582Z,97948.09
2022-09-15T13:35:32.748Z,97963.69
2022-09-15T13:39:05.789Z,97947.88
2022-09-15T13:40:50.588Z,97952.44
2022-09-15T13:42:34.183Z,97950.38
2022-09-15T13:44:26.458Z,97971.31
2022-09-15T13:45:46.839Z,97938.25
2022-09-15T13:47:18.652Z,97958.03
2022-09-15T13:48:56.180Z,97959.91
2022-09-15T13:50:21.426Z,97961.16
2022-09-15T13:51:31.889Z,97953.00
2022-09-15T13:53:05.736Z,97964.22
2022-09-15T13:54:19.679Z,97966.09
2022-09-15T13:55:28.735Z,97927.63
2022-09-15T13:56:41.402Z,97955.25
2022-09-15T13:59:25.523Z,97947.38
2022-09-15T14:00:48.224Z,97948.22
2022-09-15T14:01:53.094Z,97919.16
2022-09-15T14:03:11.410Z,97937.22
2022-09-15T14:04:27.921Z,97938.69
2022-09-15T14:05:35.547Z,97930.16
2022-09-15T14:06:49.275Z,97938.25
2022-09-15T14:08:22.724Z,97938.25
2022-09-15T14:09:47.633Z,97933.28
2022-09-15T14:11:13.794Z,97932.00
2022-09-15T14:12:22.227Z,97937.22
2022-09-15T14:13:30.199Z,97947.59
2022-09-15T14:14:44.576Z,97929.31
2022-09-15T14:16:20.033Z,97911.69